Time;durP1;ratioP1;P1;durP2;ratioP2;P2;SDS_P1;SDS_P2;PMS_P1;PMS_P2;Temp;Humidity;BMP_temperature;BMP_pressure;BME280_temperature;BME280_humidity;BME280_pressure;Samples;Min_cycle;Max_cycle;Signal;HPM_P1;HPM_P2
2022/05/26 00:00:36;;;;;;;3.55;1.30;;;19.80;60.90;;;;;;5108687;28;20062;-72
2022/05/26 00:03:02;;;;;;;2.03;1.15;;;19.70;61.20;;;;;;5099189;28;20058;-72
2022/05/26 00:05:29;;;;;;;2.08;1.30;;;19.50;60.60;;;;;;5107144;28;20050;-72
2022/05/26 00:07:56;;;;;;;2.90;1.10;;;19.70;57.00;;;;;;5090797;28;20391;-72
2022/05/26 00:10:23;;;;;;;2.70;1.25;;;19.70;57.00;;;;;;5088448;28;20058;-72
2022/05/26 00:12:51;;;;;;;2.10;1.33;;;19.50;61.00;;;;;;5080102;28;20426;-72
2022/05/26 00:15:17;;;;;;;1.77;1.17;;;20.50;61.00;;;;;;5110520;28;20058;-72
2022/05/26 00:17:44;;;;;;;1.92;1.50;;;19.70;57.00;;;;;;5097411;28;20058;-72
2022/05/26 00:20:12;;;;;;;2.58;1.42;;;19.70;57.00;;;;;;5095928;28;20505;-72
2022/05/26 00:22:39;;;;;;;1.92;1.35;;;19.70;57.00;;;;;;5098451;28;20046;-72
2022/05/26 00:25:06;;;;;;;1.30;1.20;;;19.90;61.10;;;;;;5108019;28;20047;-73
2022/05/26 00:27:33;;;;;;;2.75;1.17;;;20.70;62.20;;;;;;5098049;28;20056;-72
2022/05/26 00:30:01;;;;;;;2.40;1.38;;;18.40;60.00;;;;;;5089624;28;20490;-72
2022/05/26 00:32:29;;;;;;;3.58;1.33;;;19.70;60.40;;;;;;5103184;28;20050;-72
2022/05/26 00:34:55;;;;;;;2.30;1.25;;;19.60;57.00;;;;;;5107979;28;20475;-72
2022/05/26 00:37:22;;;;;;;1.85;1.20;;;20.30;61.20;;;;;;5093590;28;20055;-72
2022/05/26 00:39:49;;;;;;;2.05;1.40;;;19.60;57.00;;;;;;5088134;28;20048;-72
2022/05/26 00:42:15;;;;;;;2.00;1.10;;;19.60;57.00;;;;;;5088088;28;20510;-72
2022/05/26 00:44:42;;;;;;;2.45;1.10;;;19.30;60.50;;;;;;5087663;28;20052;-72
2022/05/26 00:47:12;;;;;;;1.50;1.17;;;19.50;61.20;;;;;;5088073;28;20509;-72
2022/05/26 00:49:41;;;;;;;1.90;1.10;;;18.90;60.30;;;;;;5088574;28;20062;-72
2022/05/26 00:52:08;;;;;;;2.70;1.30;;;19.60;57.10;;;;;;5087839;28;20535;-72
2022/05/26 00:54:35;;;;;;;2.03;1.30;;;19.60;61.80;;;;;;5087706;28;20056;-72
2022/05/26 00:57:03;;;;;;;1.75;1.10;;;19.60;57.10;;;;;;5099910;28;20062;-72
2022/05/26 00:59:36;;;;;;;2.15;1.42;;;19.60;57.10;;;;;;5104284;28;20134;-73
2022/05/26 01:02:03;;;;;;;2.08;1.20;;;19.60;57.10;;;;;;5094509;28;20390;-73
2022/05/26 01:04:34;;;;;;;4.20;1.30;;;19.60;57.10;;;;;;5089074;28;20050;-73
2022/05/26 01:07:03;;;;;;;1.38;1.10;;;19.60;57.10;;;;;;5088855;28;20055;-73
2022/05/26 01:09:30;;;;;;;2.45;1.10;;;19.70;61.80;;;;;;5104606;28;20048;-72
2022/05/26 01:11:57;;;;;;;2.50;1.25;;;19.60;60.70;;;;;;5109005;28;20406;-72
2022/05/26 01:14:25;;;;;;;2.03;1.30;;;19.60;57.10;;;;;;5107192;28;20057;-72
2022/05/26 01:16:58;;;;;;;1.90;1.13;;;19.50;57.10;;;;;;5108073;28;20079;-72
2022/05/26 01:19:58;;;;;;;1.80;1.10;;;19.50;60.50;;;;;;5090717;28;20074;-72
2022/05/26 01:22:32;;;;;;;2.00;1.20;;;19.50;61.20;;;;;;5058989;28;20062;-72
2022/05/26 01:25:09;;;;;;;1.77;1.20;;;19.50;60.70;;;;;;5087058;28;20062;-72
2022/05/26 01:27:37;;;;;;;1.20;1.10;;;19.50;60.50;;;;;;5087697;28;20060;-73
2022/05/26 01:30:24;;;;;;;1.67;1.08;;;19.50;60.50;;;;;;5096090;28;20048;-72
2022/05/26 01:33:15;;;;;;;1.48;1.13;;;19.50;61.40;;;;;;5107106;28;20040;-72
2022/05/26 01:35:44;;;;;;;1.15;0.90;;;19.50;57.10;;;;;;5088040;28;20478;-73
2022/05/26 01:38:18;;;;;;;1.38;1.00;;;18.30;60.90;;;;;;5087059;28;20078;-72
2022/05/26 01:40:48;;;;;;;1.30;1.00;;;19.20;60.50;;;;;;5087264;28;20064;-72
2022/05/26 01:43:17;;;;;;;1.42;1.08;;;19.50;57.20;;;;;;5092535;28;20127;-72
2022/05/26 01:45:49;;;;;;;1.35;1.05;;;19.50;61.30;;;;;;5107459;28;20055;-72
2022/05/26 01:48:19;;;;;;;1.38;1.00;;;19.40;61.20;;;;;;5103092;28;20066;-72
2022/05/26 01:50:47;;;;;;;1.13;1.02;;;19.50;57.20;;;;;;5097042;28;20055;-72
2022/05/26 01:53:23;;;;;;;1.98;1.20;;;18.40;61.10;;;;;;5101585;28;20044;-72
2022/05/26 01:55:53;;;;;;;3.00;1.30;;;20.40;61.90;;;;;;5088229;28;20043;-73
2022/05/26 01:58:22;;;;;;;2.15;1.10;;;19.40;61.40;;;;;;5087878;28;20577;-73
2022/05/26 02:00:49;;;;;;;1.58;1.00;;;19.50;57.20;;;;;;5094238;28;20532;-72
2022/05/26 02:03:18;;;;;;;1.63;1.00;;;19.30;61.70;;;;;;5101053;28;20109;-72
2022/05/26 02:05:47;;;;;;;1.60;1.10;;;19.50;57.20;;;;;;5105487;28;20059;-73
2022/05/26 02:08:16;;;;;;;1.92;1.10;;;19.50;57.20;;;;;;5087194;28;20052;-72
2022/05/26 02:10:45;;;;;;;1.40;1.20;;;20.50;61.80;;;;;;5087282;28;20489;-72
2022/05/26 02:13:13;;;;;;;1.42;1.13;;;19.50;57.20;;;;;;5104307;28;20082;-73
2022/05/26 02:15:41;;;;;;;2.00;1.38;;;19.30;61.50;;;;;;5106999;28;20121;-72
2022/05/26 02:18:10;;;;;;;2.13;1.23;;;19.50;57.20;;;;;;5102849;28;20049;-72
2022/05/26 02:20:40;;;;;;;2.60;1.20;;;19.50;61.50;;;;;;5107218;28;20050;-72
2022/05/26 02:23:09;;;;;;;1.80;1.20;;;19.40;57.20;;;;;;5102769;28;20043;-72
2022/05/26 02:25:37;;;;;;;1.63;1.15;;;19.50;57.30;;;;;;5087912;28;20577;-72
2022/05/26 02:28:05;;;;;;;2.95;1.40;;;19.60;61.10;;;;;;5094297;28;20058;-72
2022/05/26 02:30:35;;;;;;;2.30;1.20;;;20.60;62.10;;;;;;5109029;28;20585;-72
2022/05/26 02:33:02;;;;;;;3.35;1.40;;;19.40;57.20;;;;;;5092076;28;20051;-73
2022/05/26 02:35:30;;;;;;;3.22;1.50;;;19.40;57.30;;;;;;5098546;28;20470;-72
2022/05/26 02:38:01;;;;;;;2.15;1.42;;;19.40;61.70;;;;;;5092006;28;20078;-72
2022/05/26 02:40:28;;;;;;;3.38;1.50;;;18.90;60.70;;;;;;5091454;28;20401;-72
2022/05/26 02:42:56;;;;;;;2.78;1.50;;;19.40;61.90;;;;;;5101403;28;20047;-72
2022/05/26 02:45:31;;;;;;;3.25;1.50;;;19.40;57.30;;;;;;5091909;28;20052;-73
2022/05/26 02:48:01;;;;;;;3.35;1.55;;;19.90;61.10;;;;;;5118068;27;20404;-72
2022/05/26 02:50:45;;;;;;;2.72;1.40;;;19.40;57.40;;;;;;5122858;27;20370;-72
2022/05/26 02:53:19;;;;;;;2.13;1.40;;;20.40;58.30;;;;;;5110897;28;20417;-72
2022/05/26 02:55:59;;;;;;;2.80;1.70;;;19.10;60.80;;;;;;5109632;28;20136;-72
2022/05/26 02:58:32;;;;;;;3.17;1.58;;;19.40;57.40;;;;;;5109993;28;20121;-72
2022/05/26 03:01:00;;;;;;;2.92;1.58;;;19.20;61.20;;;;;;5099777;28;20048;-73
2022/05/26 03:03:28;;;;;;;4.30;1.60;;;19.50;60.00;;;;;;5093809;28;20066;-72
2022/05/26 03:05:57;;;;;;;3.78;1.50;;;19.60;61.90;;;;;;5099845;28;20417;-73
2022/05/26 03:08:27;;;;;;;1.92;1.15;;;20.50;62.40;;;;;;5106023;28;20047;-72
2022/05/26 03:10:54;;;;;;;5.07;1.67;;;19.60;61.20;;;;;;5089786;28;20417;-73
2022/05/26 03:13:21;;;;;;;4.72;1.80;;;19.30;57.40;;;;;;5093620;28;20409;-72
2022/05/26 03:15:48;;;;;;;3.38;1.40;;;19.50;61.70;;;;;;5093103;28;20063;-72
2022/05/26 03:18:14;;;;;;;4.28;1.70;;;19.40;57.40;;;;;;5092344;28;20136;-72
2022/05/26 03:20:41;;;;;;;3.90;1.48;;;19.30;61.40;;;;;;5095696;28;20482;-73
2022/05/26 03:23:08;;;;;;;3.08;1.50;;;19.30;57.40;;;;;;5109465;28;20047;-72
2022/05/26 03:25:36;;;;;;;3.63;1.80;;;19.40;57.40;;;;;;5104428;28;20066;-72
2022/05/26 03:28:02;;;;;;;3.55;1.60;;;19.40;61.10;;;;;;5099956;28;20077;-72
2022/05/26 03:30:29;;;;;;;4.78;1.70;;;18.40;60.60;;;;;;5098476;28;20050;-73
2022/05/26 03:32:56;;;;;;;3.97;1.90;;;19.30;57.40;;;;;;5096028;28;20402;-73
2022/05/26 03:40:55;;;;;;;4.68;1.60;;;19.20;61.80;;;;;;5110472;28;20066;-72
2022/05/26 03:43:22;;;;;;;3.92;1.60;;;19.40;61.20;;;;;;5097266;28;20047;-72
2022/05/26 03:45:48;;;;;;;5.00;1.70;;;19.30;57.50;;;;;;5110872;28;20047;-72
2022/05/26 03:48:15;;;;;;;4.07;1.52;;;19.30;57.40;;;;;;5111417;27;20050;-72
2022/05/26 03:50:42;;;;;;;4.72;1.80;;;19.30;61.80;;;;;;5110521;28;20724;-73
2022/05/26 03:53:08;;;;;;;5.63;2.05;;;19.40;62.00;;;;;;5108007;28;20035;-72
2022/05/26 03:55:35;;;;;;;4.95;1.73;;;19.30;57.50;;;;;;5108706;28;20044;-72
2022/05/26 03:58:03;;;;;;;4.32;1.67;;;18.40;60.90;;;;;;5098738;28;20048;-72
2022/05/26 04:00:30;;;;;;;5.47;1.80;;;19.50;61.30;;;;;;5088695;28;20387;-73
2022/05/26 04:02:57;;;;;;;5.53;1.92;;;19.10;60.90;;;;;;5098698;28;20040;-72
2022/05/26 04:05:24;;;;;;;4.32;1.80;;;20.10;62.40;;;;;;5095773;28;20035;-72
2022/05/26 04:07:50;;;;;;;4.35;1.75;;;19.30;57.50;;;;;;5108306;28;20697;-73
2022/05/26 04:10:17;;;;;;;3.45;1.70;;;19.30;57.50;;;;;;5108780;28;20051;-72
2022/05/26 04:12:44;;;;;;;5.45;1.73;;;19.30;62.00;;;;;;5104018;28;20058;-72
2022/05/26 04:15:13;;;;;;;4.07;1.70;;;18.60;61.20;;;;;;5094884;28;20057;-73
2022/05/26 04:17:40;;;;;;;4.22;2.08;;;19.20;61.90;;;;;;5110349;28;20123;-73
2022/05/26 04:20:07;;;;;;;4.82;1.80;;;19.00;61.10;;;;;;5103184;28;20062;-73
2022/05/26 04:22:34;;;;;;;3.90;1.77;;;20.00;62.20;;;;;;5088595;28;20055;-72
2022/05/26 04:25:01;;;;;;;6.38;2.13;;;19.30;62.30;;;;;;5089071;28;20044;-73
2022/05/26 04:27:31;;;;;;;4.55;2.00;;;19.20;57.50;;;;;;5089324;28;20105;-73
2022/05/26 04:29:58;;;;;;;6.60;2.20;;;19.20;61.80;;;;;;5088187;28;20486;-72
2022/05/26 04:32:27;;;;;;;7.78;1.73;;;19.10;61.30;;;;;;5088829;28;20502;-72
2022/05/26 04:34:53;;;;;;;5.10;2.00;;;19.30;57.60;;;;;;5087983;28;20395;-73
2022/05/26 04:37:21;;;;;;;4.32;1.75;;;19.30;57.60;;;;;;5087614;28;20052;-72
2022/05/26 04:39:50;;;;;;;5.53;1.88;;;19.30;57.60;;;;;;5088370;28;20516;-72
2022/05/26 04:42:17;;;;;;;6.45;2.10;;;19.30;57.60;;;;;;5088612;28;20750;-72
2022/05/26 04:44:44;;;;;;;4.97;1.92;;;18.90;61.80;;;;;;5087133;28;20055;-72
2022/05/26 04:47:12;;;;;;;6.22;2.00;;;19.30;61.90;;;;;;5096450;28;20408;-72
2022/05/26 04:49:40;;;;;;;5.22;2.15;;;19.30;57.60;;;;;;5104822;28;20059;-72
2022/05/26 04:52:07;;;;;;;5.15;2.00;;;20.00;62.00;;;;;;5100910;28;20055;-72
2022/05/26 04:54:35;;;;;;;4.72;1.90;;;20.00;62.40;;;;;;5103544;28;20058;-72
2022/05/26 04:57:02;;;;;;;4.95;1.80;;;19.80;61.30;;;;;;5104786;28;20040;-72
2022/05/26 04:59:30;;;;;;;4.07;1.77;;;19.30;57.50;;;;;;5087603;28;20059;-72
2022/05/26 05:01:57;;;;;;;4.95;2.10;;;19.40;62.10;;;;;;5095452;28;20061;-72
2022/05/26 05:04:24;;;;;;;5.32;1.80;;;19.30;57.50;;;;;;5088456;28;20071;-72
2022/05/26 05:06:52;;;;;;;4.50;1.60;;;19.20;61.50;;;;;;5101578;28;20055;-72
2022/05/26 05:09:19;;;;;;;6.32;1.63;;;19.30;57.50;;;;;;5096076;28;20060;-72
2022/05/26 05:11:46;;;;;;;5.10;1.80;;;19.50;60.90;;;;;;5091562;28;20051;-72
2022/05/26 05:14:12;;;;;;;5.60;2.10;;;19.50;61.10;;;;;;5107669;28;20051;-72
2022/05/26 05:16:42;;;;;;;4.70;2.00;;;19.40;62.10;;;;;;5105756;28;20138;-72
2022/05/26 05:19:09;;;;;;;4.40;1.70;;;19.60;61.60;;;;;;5087721;28;20064;-72
2022/05/26 05:21:37;;;;;;;4.38;1.67;;;19.40;57.40;;;;;;5103844;28;20051;-72
2022/05/26 05:24:07;;;;;;;6.28;1.90;;;19.40;57.40;;;;;;5095408;28;20058;-72
2022/05/26 05:26:35;;;;;;;5.07;1.70;;;20.80;58.20;;;;;;5087618;28;20056;-72
2022/05/26 05:29:05;;;;;;;4.35;1.67;;;19.40;57.40;;;;;;5100333;28;20039;-72
2022/05/26 05:31:34;;;;;;;4.32;1.88;;;18.90;60.50;;;;;;5106354;28;20134;-73
2022/05/26 05:34:02;;;;;;;5.07;1.92;;;20.10;61.70;;;;;;5099400;28;20050;-72
2022/05/26 05:36:31;;;;;;;3.63;1.83;;;19.50;62.00;;;;;;5087838;28;20093;-72
2022/05/26 05:38:58;;;;;;;7.45;1.80;;;19.40;57.40;;;;;;5098761;28;20562;-72
2022/05/26 05:41:26;;;;;;;4.15;1.58;;;20.30;62.10;;;;;;5108177;28;20408;-72
2022/05/26 05:43:54;;;;;;;3.80;1.92;;;20.20;62.00;;;;;;5107192;28;20442;-72
2022/05/26 05:46:21;;;;;;;5.32;1.70;;;19.80;61.00;;;;;;5108274;28;20055;-73
2022/05/26 05:48:47;;;;;;;5.47;2.00;;;18.40;61.30;;;;;;5101560;28;20064;-73
2022/05/26 05:51:14;;;;;;;5.00;1.50;;;19.80;57.20;;;;;;5109122;28;20063;-72
2022/05/26 05:53:42;;;;;;;6.35;1.83;;;19.30;59.20;;;;;;5100180;28;20130;-72
2022/05/26 05:56:09;;;;;;;4.45;1.48;;;20.10;61.10;;;;;;5095361;28;20079;-72
2022/05/26 05:58:37;;;;;;;5.03;1.70;;;20.30;61.10;;;;;;5094837;28;20052;-73
2022/05/26 06:01:05;;;;;;;3.40;1.60;;;18.90;60.30;;;;;;5097586;28;20135;-72
2022/05/26 06:03:32;;;;;;;3.38;1.52;;;19.90;57.70;;;;;;5091661;27;20032;-73
2022/05/26 06:05:59;;;;;;;2.67;1.50;;;20.60;60.30;;;;;;5096163;28;20074;-73
2022/05/26 06:08:26;;;;;;;4.43;1.73;;;20.70;55.30;;;;;;5093799;28;20052;-73
2022/05/26 06:10:53;;;;;;;4.22;1.50;;;20.80;55.00;;;;;;5100464;28;20633;-73
2022/05/26 06:13:20;;;;;;;3.25;1.50;;;21.70;59.20;;;;;;5098827;28;20064;-73
2022/05/26 06:15:48;;;;;;;4.90;1.88;;;21.20;59.30;;;;;;5098333;28;20137;-72
2022/05/26 06:18:16;;;;;;;2.08;1.20;;;21.20;54.50;;;;;;5098729;28;20387;-72
2022/05/26 06:20:42;;;;;;;3.88;1.30;;;21.30;54.40;;;;;;5096844;28;20052;-72
2022/05/26 06:23:10;;;;;;;2.65;1.20;;;21.40;54.20;;;;;;5097426;28;20040;-73
2022/05/26 06:25:36;;;;;;;4.00;1.40;;;21.70;58.70;;;;;;5097271;28;20052;-73
2022/05/26 06:30:49;;;;;;;3.25;1.38;;;21.70;53.80;;;;;;5098863;28;20698;-74
2022/05/26 06:38:45;;;;;;;3.42;1.25;;;21.60;57.90;;;;;;5099929;28;20043;-73
2022/05/26 06:43:58;;;;;;;5.18;1.40;;;22.20;53.60;;;;;;5099818;28;20052;-72
2022/05/26 06:46:27;;;;;;;3.67;1.48;;;22.30;53.20;;;;;;5099383;28;20048;-72
2022/05/26 06:48:53;;;;;;;6.00;1.23;;;21.50;57.70;;;;;;5107627;27;20048;-72
2022/05/26 06:51:22;;;;;;;3.78;1.23;;;22.40;53.00;;;;;;5109676;28;20051;-72
2022/05/26 06:53:49;;;;;;;3.40;1.58;;;22.50;53.00;;;;;;5101253;28;20058;-72
2022/05/26 06:56:15;;;;;;;3.30;1.25;;;22.10;57.10;;;;;;5110525;28;20142;-72
2022/05/26 06:58:42;;;;;;;3.78;1.42;;;22.60;53.00;;;;;;5101083;28;20493;-73
2022/05/26 07:01:09;;;;;;;5.70;1.48;;;22.70;53.00;;;;;;5090967;28;20131;-73
2022/05/26 07:03:37;;;;;;;4.93;1.75;;;22.10;54.90;;;;;;5109823;28;20058;-72
2022/05/26 07:06:04;;;;;;;3.13;1.33;;;23.80;57.30;;;;;;5094979;28;20052;-72
2022/05/26 07:08:30;;;;;;;2.80;1.33;;;22.80;52.80;;;;;;5090290;28;20433;-72
2022/05/26 07:11:00;;;;;;;8.35;1.73;;;22.80;57.00;;;;;;5089549;28;20056;-73
2022/05/26 07:13:27;;;;;;;3.63;1.70;;;22.80;52.80;;;;;;5096584;28;20059;-73
2022/05/26 07:15:54;;;;;;;3.30;1.40;;;22.70;57.40;;;;;;5109525;28;20047;-73
2022/05/26 07:18:21;;;;;;;2.72;1.35;;;22.70;52.80;;;;;;5109736;28;20402;-72
2022/05/26 07:20:49;;;;;;;3.17;1.38;;;22.60;57.80;;;;;;5090778;28;20064;-73
2022/05/26 07:23:15;;;;;;;3.25;1.40;;;22.60;52.80;;;;;;5091930;28;20425;-73
2022/05/26 07:25:43;;;;;;;2.42;1.10;;;22.60;56.80;;;;;;5099645;28;20040;-73
2022/05/26 07:28:12;;;;;;;3.70;1.17;;;22.60;52.80;;;;;;5096552;28;20044;-73
2022/05/26 07:30:38;;;;;;;2.13;1.30;;;21.90;57.90;;;;;;5098440;28;20044;-73
2022/05/26 07:33:05;;;;;;;4.50;1.20;;;22.60;57.20;;;;;;5097292;28;20132;-73
2022/05/26 07:35:32;;;;;;;4.13;1.10;;;22.60;56.70;;;;;;5110910;28;20062;-73
2022/05/26 07:43:31;;;;;;;3.73;1.30;;;22.70;54.80;;;;;;5096631;28;20051;-73
2022/05/26 07:45:58;;;;;;;4.78;1.48;;;22.60;57.10;;;;;;5103247;28;20056;-73
2022/05/26 07:48:24;;;;;;;3.03;1.20;;;22.50;52.70;;;;;;5100387;28;20132;-73
2022/05/26 07:50:51;;;;;;;2.92;1.20;;;22.50;53.30;;;;;;5090216;28;20148;-73
2022/05/26 07:53:19;;;;;;;5.57;1.45;;;22.50;57.30;;;;;;5097584;28;20051;-72
2022/05/26 07:55:46;;;;;;;3.75;1.38;;;22.60;52.90;;;;;;5104124;28;20066;-73
2022/05/26 07:58:12;;;;;;;6.63;1.10;;;22.50;52.80;;;;;;5093397;28;20048;-72
2022/05/26 08:00:39;;;;;;;3.47;1.30;;;22.30;56.20;;;;;;5090037;28;20075;-73
2022/05/26 08:03:07;;;;;;;4.47;1.20;;;22.40;52.50;;;;;;5107769;28;20402;-73
2022/05/26 08:05:34;;;;;;;3.72;1.40;;;22.40;52.50;;;;;;5109396;28;20632;-70
2022/05/26 08:08:00;;;;;;;3.65;1.20;;;22.30;52.50;;;;;;5105827;28;20055;-73
2022/05/26 08:10:28;;;;;;;3.00;1.15;;;22.30;52.40;;;;;;5109334;28;20656;-72
2022/05/26 08:12:55;;;;;;;2.53;1.20;;;22.30;55.80;;;;;;5108082;28;20043;-73
2022/05/26 08:15:23;;;;;;;4.00;1.20;;;22.30;52.50;;;;;;5108900;28;20039;-72
2022/05/26 08:17:50;;;;;;;5.65;1.30;;;24.80;53.90;;;;;;5094557;28;20506;-73
2022/05/26 08:20:17;;;;;;;2.70;1.10;;;21.90;56.40;;;;;;5108350;28;20089;-72
2022/05/26 08:22:44;;;;;;;4.40;1.20;;;22.30;55.90;;;;;;5094659;28;20051;-73
2022/05/26 08:25:11;;;;;;;2.72;0.90;;;22.90;52.60;;;;;;5106996;28;20549;-72
2022/05/26 08:27:39;;;;;;;2.42;0.85;;;22.40;56.60;;;;;;5107317;28;20073;-73
2022/05/26 08:30:07;;;;;;;2.78;0.98;;;22.50;57.40;;;;;;5101111;28;20599;-72
2022/05/26 08:32:33;;;;;;;2.28;0.85;;;22.40;52.40;;;;;;5099038;28;20412;-73
2022/05/26 08:35:01;;;;;;;1.92;0.95;;;22.30;56.30;;;;;;5107684;28;20047;-72
2022/05/26 08:37:27;;;;;;;2.25;1.25;;;22.40;52.50;;;;;;5104575;28;20571;-73
2022/05/26 08:39:54;;;;;;;2.83;1.08;;;21.60;55.40;;;;;;5100569;28;20044;-73
2022/05/26 08:42:23;;;;;;;3.20;0.90;;;22.40;52.50;;;;;;5108122;28;20047;-72
2022/05/26 08:44:54;;;;;;;1.13;0.80;;;22.40;52.50;;;;;;5108379;28;20486;-73
2022/05/26 08:47:23;;;;;;;2.47;0.95;;;21.80;56.70;;;;;;5109631;27;20055;-72
2022/05/26 08:49:51;;;;;;;3.53;1.17;;;22.30;52.60;;;;;;5129331;27;20142;-72
2022/05/26 08:52:20;;;;;;;1.17;0.90;;;22.20;56.10;;;;;;5129065;27;20055;-72
2022/05/26 08:54:49;;;;;;;1.00;0.70;;;22.30;52.60;;;;;;5128258;27;20127;-72
2022/05/26 08:57:16;;;;;;;1.42;0.98;;;22.30;52.60;;;;;;5128967;27;20061;-72
2022/05/26 08:59:45;;;;;;;1.75;0.98;;;22.40;56.00;;;;;;5128860;27;20055;-72
2022/05/26 09:02:23;;;;;;;4.75;1.02;;;22.50;56.50;;;;;;5109439;27;20052;-72
2022/05/26 09:04:50;;;;;;;2.15;0.98;;;22.50;52.70;;;;;;5100947;28;20055;-73
2022/05/26 09:12:59;;;;;;;2.20;0.80;;;22.60;57.50;;;;;;5107826;28;20051;-73
2022/05/26 09:15:26;;;;;;;1.90;1.00;;;22.60;56.30;;;;;;5099387;28;20044;-73
2022/05/26 09:17:54;;;;;;;3.00;0.80;;;22.10;56.50;;;;;;5103547;28;20134;-73
2022/05/26 09:20:33;;;;;;;2.47;1.00;;;22.60;52.40;;;;;;5108425;28;20483;-73
2022/05/26 09:23:22;;;;;;;1.90;0.75;;;22.70;52.50;;;;;;5109066;28;20572;-72
2022/05/26 09:25:50;;;;;;;1.38;0.77;;;22.70;52.50;;;;;;5094754;28;20126;-73
2022/05/26 09:28:27;;;;;;;2.05;0.88;;;22.70;52.40;;;;;;5109284;28;20050;-71
2022/05/26 09:30:54;;;;;;;2.60;0.95;;;22.60;55.80;;;;;;5108792;28;20048;-72
2022/05/26 09:33:29;;;;;;;2.13;1.08;;;22.80;52.20;;;;;;5108306;28;20456;-72
2022/05/26 09:36:05;;;;;;;1.60;0.88;;;22.80;52.00;;;;;;5109762;28;20048;-71
2022/05/26 09:38:32;;;;;;;1.70;0.85;;;21.80;55.20;;;;;;5108832;28;20055;-71
2022/05/26 09:41:06;;;;;;;1.25;0.65;;;22.90;51.80;;;;;;5111779;28;21776;-72
2022/05/26 09:43:33;;;;;;;1.67;0.88;;;23.10;54.30;;;;;;5111455;28;20420;-72
2022/05/26 09:46:01;;;;;;;1.75;1.00;;;23.10;55.40;;;;;;5107985;28;20044;-72
2022/05/26 09:48:31;;;;;;;1.60;0.80;;;22.90;51.60;;;;;;5102575;28;20063;-72
2022/05/26 09:51:06;;;;;;;1.98;1.05;;;22.90;51.60;;;;;;5104855;28;20066;-72
2022/05/26 09:53:34;;;;;;;2.13;1.10;;;23.30;54.00;;;;;;5106873;28;20096;-72
2022/05/26 09:56:01;;;;;;;1.95;0.90;;;22.80;51.60;;;;;;5104103;28;20054;-72
2022/05/26 09:58:30;;;;;;;1.65;0.80;;;22.80;51.60;;;;;;5100707;28;20055;-72
2022/05/26 10:00:58;;;;;;;0.68;0.68;;;22.80;51.60;;;;;;5102374;28;20051;-72
2022/05/26 10:03:33;;;;;;;2.38;0.82;;;22.80;55.30;;;;;;5098646;28;20068;-72
2022/05/26 10:06:16;;;;;;;1.83;0.90;;;22.70;51.70;;;;;;5092506;28;20058;-72
2022/05/26 10:08:47;;;;;;;2.67;0.93;;;22.30;54.50;;;;;;5091425;28;20051;-72
2022/05/26 10:11:16;;;;;;;2.22;0.80;;;22.70;51.70;;;;;;5090626;28;20122;-72
2022/05/26 10:14:01;;;;;;;5.22;0.90;;;22.70;54.20;;;;;;5095794;28;20051;-71
2022/05/26 10:16:32;;;;;;;3.28;0.80;;;22.70;51.70;;;;;;5093724;28;20040;-73
2022/05/26 10:19:06;;;;;;;2.63;0.95;;;22.70;51.70;;;;;;5093092;28;20059;-73
2022/05/26 10:21:51;;;;;;;1.85;0.82;;;22.70;51.70;;;;;;5090542;28;20051;-72
2022/05/26 10:24:38;;;;;;;1.55;0.85;;;22.70;51.80;;;;;;5103554;28;20055;-72
2022/05/26 10:27:10;;;;;;;1.48;0.90;;;22.50;55.60;;;;;;5095745;28;20406;-73
2022/05/26 10:29:47;;;;;;;3.03;0.90;;;22.70;52.00;;;;;;5100229;28;20036;-72
2022/05/26 10:32:18;;;;;;;2.60;0.60;;;22.60;51.90;;;;;;5090791;28;20047;-72
2022/05/26 10:35:08;;;;;;;1.35;0.73;;;22.60;51.90;;;;;;5096745;28;20051;-72
2022/05/26 10:37:42;;;;;;;1.63;0.75;;;22.70;56.00;;;;;;5097453;28;20052;-72
2022/05/26 10:40:16;;;;;;;2.85;0.82;;;22.60;52.00;;;;;;5099364;28;20050;-73
2022/05/26 10:42:44;;;;;;;2.15;0.77;;;22.60;52.10;;;;;;5096064;28;20058;-73
2022/05/26 10:45:13;;;;;;;2.42;0.80;;;22.60;52.10;;;;;;5098409;28;20048;-73
2022/05/26 10:47:42;;;;;;;1.48;0.60;;;22.40;55.10;;;;;;5101537;28;20065;-73
2022/05/26 10:50:19;;;;;;;3.13;0.75;;;22.60;52.20;;;;;;5101623;28;20101;-73
2022/05/26 10:52:48;;;;;;;2.00;0.80;;;22.50;52.20;;;;;;5099984;28;20050;-73
2022/05/26 10:55:16;;;;;;;0.68;0.60;;;22.30;56.70;;;;;;5099361;28;20051;-73
2022/05/26 10:57:45;;;;;;;1.08;0.70;;;22.50;52.30;;;;;;5099520;28;20040;-73
2022/05/26 11:00:14;;;;;;;1.45;0.75;;;22.50;55.70;;;;;;5100222;28;20047;-73
2022/05/26 11:02:46;;;;;;;1.50;0.77;;;22.50;56.10;;;;;;5099351;28;20055;-73
2022/05/26 11:05:17;;;;;;;2.53;0.85;;;22.50;52.40;;;;;;5098956;28;20050;-73
2022/05/26 11:07:47;;;;;;;1.45;0.77;;;22.40;55.90;;;;;;5100439;28;20043;-73
2022/05/26 11:10:17;;;;;;;0.98;0.60;;;22.40;52.50;;;;;;5098793;28;20126;-73
2022/05/26 11:12:46;;;;;;;0.75;0.60;;;22.50;56.60;;;;;;5098724;28;20044;-73
2022/05/26 11:18:02;;;;;;;1.58;0.77;;;22.40;52.60;;;;;;5101300;28;20065;-73
2022/05/26 11:20:31;;;;;;;1.67;0.60;;;22.40;56.20;;;;;;5110426;28;20138;-73
2022/05/26 11:23:02;;;;;;;3.08;0.90;;;22.40;52.60;;;;;;5109925;28;20082;-73
2022/05/26 11:25:31;;;;;;;1.77;0.80;;;22.60;55.80;;;;;;5110133;28;20040;-73
2022/05/26 11:27:59;;;;;;;1.55;0.68;;;22.40;52.70;;;;;;5109341;28;20524;-73
2022/05/26 11:36:09;;;;;;;0.88;0.68;;;22.00;56.60;;;;;;5099417;28;20135;-72
2022/05/26 11:38:36;;;;;;;3.17;0.80;;;22.30;56.50;;;;;;5091984;28;20398;-73
2022/05/26 11:41:04;;;;;;;0.85;0.60;;;22.30;56.50;;;;;;5095670;28;20058;-73
2022/05/26 11:43:33;;;;;;;1.75;1.00;;;22.10;54.50;;;;;;5110736;28;20048;-73
2022/05/26 11:46:00;;;;;;;0.82;0.63;;;22.70;56.40;;;;;;5109820;28;20569;-73
2022/05/26 11:48:46;;;;;;;2.15;0.80;;;21.80;56.50;;;;;;5109674;28;20122;-73
2022/05/26 11:51:38;;;;;;;1.13;0.68;;;22.20;52.80;;;;;;5108722;28;20047;-73
2022/05/26 11:54:05;;;;;;;0.88;0.70;;;22.20;52.90;;;;;;5109565;28;20051;-73
2022/05/26 11:56:48;;;;;;;2.42;0.82;;;21.10;56.30;;;;;;5096330;28;20417;-72
2022/05/26 11:59:40;;;;;;;3.83;1.00;;;22.20;52.80;;;;;;5088757;28;20055;-73
2022/05/26 12:02:31;;;;;;;3.03;1.00;;;22.10;52.80;;;;;;5099303;27;20054;-72
2022/05/26 12:04:58;;;;;;;8.75;2.03;;;22.10;52.90;;;;;;5106697;27;20490;-71
2022/05/26 12:07:39;;;;;;;10.15;2.83;;;21.90;56.40;;;;;;5108383;28;20126;-72
2022/05/26 12:10:20;;;;;;;6.85;2.00;;;21.60;56.20;;;;;;5100742;28;20097;-73
2022/05/26 12:12:46;;;;;;;11.68;2.70;;;22.70;56.50;;;;;;5089009;28;20056;-73
2022/05/26 12:15:21;;;;;;;8.30;2.15;;;21.70;57.10;;;;;;5088690;28;20135;-74
2022/05/26 12:17:49;;;;;;;8.02;2.15;;;21.60;57.00;;;;;;5088915;28;20065;-73
2022/05/26 12:20:33;;;;;;;14.50;3.95;;;22.60;57.10;;;;;;5102178;28;20077;-70
2022/05/26 12:23:25;;;;;;;15.52;3.45;;;22.00;53.10;;;;;;5109681;28;20610;-71
2022/05/26 12:26:26;;;;;;;17.33;3.75;;;22.00;53.00;;;;;;5100161;28;20047;-73
2022/05/26 12:28:52;;;;;;;14.80;3.53;;;21.90;52.80;;;;;;5109223;28;20676;-72
2022/05/26 12:31:19;;;;;;;17.20;3.78;;;21.80;52.80;;;;;;5110028;28;20050;-73
2022/05/26 12:34:11;;;;;;;7.43;2.78;;;21.70;54.80;;;;;;5108795;28;20051;-72
2022/05/26 12:37:01;;;;;;;12.13;4.25;;;21.80;52.80;;;;;;5108831;28;20440;-72
2022/05/26 12:39:45;;;;;;;11.45;3.80;;;21.80;53.00;;;;;;5108528;28;20090;-72
2022/05/26 12:42:17;;;;;;;12.63;3.25;;;22.00;56.30;;;;;;5108677;28;20063;-72
2022/05/26 12:45:08;;;;;;;12.18;3.55;;;21.30;56.70;;;;;;5108178;28;20109;-72
2022/05/26 12:47:44;;;;;;;10.52;2.90;;;21.80;53.10;;;;;;5112085;27;20046;-72
2022/05/26 12:50:12;;;;;;;11.52;2.95;;;21.80;53.20;;;;;;5129836;27;20046;-72
2022/05/26 12:52:40;;;;;;;9.90;2.70;;;22.70;56.70;;;;;;5129204;27;20408;-72
2022/05/26 12:55:14;;;;;;;10.98;2.90;;;21.90;53.30;;;;;;5128846;27;20057;-73
2022/05/26 12:57:42;;;;;;;7.53;2.67;;;21.80;56.80;;;;;;5125106;27;20138;-72
2022/05/26 13:00:29;;;;;;;9.15;2.53;;;22.00;57.50;;;;;;5108917;28;20147;-72
2022/05/26 13:02:57;;;;;;;9.63;2.60;;;21.90;53.50;;;;;;5107464;28;20051;-73
2022/05/26 13:05:24;;;;;;;12.15;2.78;;;21.90;53.60;;;;;;5108404;28;20142;-72
2022/05/26 13:07:53;;;;;;;7.60;2.83;;;22.00;57.30;;;;;;5108723;28;20051;-73
2022/05/26 13:10:22;;;;;;;10.18;2.70;;;21.90;53.60;;;;;;5108657;28;20738;-73
2022/05/26 13:12:49;;;;;;;6.35;2.20;;;22.00;58.50;;;;;;5108365;28;20054;-74
2022/05/26 13:15:21;;;;;;;9.27;2.60;;;21.90;53.70;;;;;;5107196;28;20496;-73
2022/05/26 13:17:48;;;;;;;7.50;2.58;;;21.90;53.70;;;;;;5108583;28;20063;-73
2022/05/26 13:20:22;;;;;;;10.00;2.95;;;21.90;53.70;;;;;;5107888;28;20062;-72
2022/05/26 13:22:49;;;;;;;6.43;2.38;;;21.80;57.50;;;;;;5108284;28;20052;-73
2022/05/26 13:25:17;;;;;;;8.10;2.13;;;21.90;53.80;;;;;;5107933;28;20047;-73
2022/05/26 13:27:47;;;;;;;6.45;2.08;;;21.80;53.80;;;;;;5108525;28;20055;-74
2022/05/26 13:33:11;;;;;;;5.57;2.10;;;21.40;57.10;;;;;;5107813;28;20043;-73
2022/05/26 13:35:42;;;;;;;8.45;2.40;;;22.90;57.60;;;;;;5107999;28;20486;-72
2022/05/26 13:38:37;;;;;;;5.55;2.20;;;21.80;53.90;;;;;;5108624;28;20417;-72